Time,TemperatureF,DewpointF,PressureIn,WindDirection,WindDirectionDegrees,WindSpeedMPH,WindSpeedGustMPH,Humidity,HourlyPrecipIn,Conditions,Clouds,dailyrainin,SoftwareType,DateUTC
2013-08-10 00:01:00,65.3,48.7,30.13,North,0,0.0,0.0,55,0.00,,,0.00,WUHU216HW,2013-08-10 06:01:00,
2013-08-10 00:06:00,65.0,47.9,30.13,North,0,0.0,0.0,54,0.00,,,0.00,WUHU216HW,2013-08-10 06:06:00,
2013-08-10 00:11:00,64.6,47.5,30.12,North,0,0.0,0.0,54,0.00,,,0.00,WUHU216HW,2013-08-10 06:11:00,
2013-08-10 00:16:00,64.3,47.2,30.13,North,0,0.0,0.0,54,0.00,,,0.00,WUHU216HW,2013-08-10 06:16:00,
2013-08-10 00:21:00,64.1,47.4,30.13,North,0,0.0,0.0,55,0.00,,,0.00,WUHU216HW,2013-08-10 06:21:00,
2013-08-10 00:26:00,63.7,46.6,30.12,North,0,0.0,0.0,54,0.00,,,0.00,WUHU216HW,2013-08-10 06:26:00,
2013-08-10 00:31:00,63.7,47.6,30.12,North,0,0.0,0.0,56,0.00,,,0.00,WUHU216HW,2013-08-10 06:31:00,
2013-08-10 00:36:00,63.9,48.2,30.12,North,0,0.0,0.0,57,0.00,,,0.00,WUHU216HW,2013-08-10 06:36:00,
2013-08-10 00:41:00,64.6,48.4,30.12,North,0,0.0,0.0,56,0.00,,,0.00,WUHU216HW,2013-08-10 06:41:00,
2013-08-10 00:46:00,65.7,48.1,30.11,North,0,0.0,0.0,53,0.00,,,0.00,WUHU216HW,2013-08-10 06:46:00,
2013-08-10 00:51:00,66.2,48.2,30.11,North,0,0.0,0.0,52,0.00,,,0.00,WUHU216HW,2013-08-10 06:51:00,
2013-08-10 00:56:00,66.2,47.6,30.12,North,0,0.0,0.0,51,0.00,,,0.00,WUHU216HW,2013-08-10 06:56:00,
2013-08-10 01:01:00,65.7,47.1,30.12,North,0,0.0,0.0,51,0.00,,,0.00,WUHU216HW,2013-08-10 07:01:00,
2013-08-10 01:06:00,64.8,46.7,30.12,North,0,0.0,0.0,52,0.00,,,0.00,WUHU216HW,2013-08-10 07:06:00,
2013-08-10 01:11:00,63.5,48.0,30.12,North,0,0.0,0.0,57,0.00,,,0.00,WUHU216HW,2013-08-10 07:11:00,
2013-08-10 01:16:00,62.8,47.8,30.12,North,0,0.0,0.0,58,0.00,,,0.00,WUHU216HW,2013-08-10 07:16:00,
2013-08-10 01:21:00,62.3,46.8,30.12,North,0,0.0,0.0,57,0.00,,,0.00,WUHU216HW,2013-08-10 07:21:00,
2013-08-10 01:26:00,61.9,46.5,30.12,North,0,0.0,0.0,57,0.00,,,0.00,WUHU216HW,2013-08-10 07:26:00,
2013-08-10 01:31:00,61.4,46.0,30.13,North,0,0.0,0.0,57,0.00,,,0.00,WUHU216HW,2013-08-10 07:31:00,
2013-08-10 01:36:00,61.0,45.7,30.13,North,0,0.0,0.0,57,0.00,,,0.00,WUHU216HW,2013-08-10 07:36:00,
2013-08-10 01:41:00,60.7,45.8,30.13,North,0,0.0,0.0,58,0.00,,,0.00,WUHU216HW,2013-08-10 07:41:00,
2013-08-10 01:46:00,60.5,46.2,30.13,North,0,0.0,0.0,59,0.00,,,0.00,WUHU216HW,2013-08-10 07:46:00,
2013-08-10 01:51:00,60.3,46.0,30.12,North,0,0.0,0.0,59,0.00,,,0.00,WUHU216HW,2013-08-10 07:51:00,
2013-08-10 01:56:00,60.1,45.8,30.13,North,0,0.0,0.0,59,0.00,,,0.00,WUHU216HW,2013-08-10 07:56:00,
2013-08-10 02:01:00,59.9,45.6,30.13,North,0,0.0,0.0,59,0.00,,,0.00,WUHU216HW,2013-08-10 08:01:00,
2013-08-10 02:06:00,59.9,46.1,30.12,North,0,0.0,0.0,60,0.00,,,0.00,WUHU216HW,2013-08-10 08:06:00,
2013-08-10 02:11:00,59.9,45.6,30.12,North,0,0.0,0.0,59,0.00,,,0.00,WUHU216HW,2013-08-10 08:11:00,
2013-08-10 02:16:00,59.8,45.5,30.12,North,0,0.0,0.0,59,0.00,,,0.00,WUHU216HW,2013-08-10 08:16:00,
2013-08-10 02:21:00,59.8,45.9,30.12,North,0,0.0,0.0,60,0.00,,,0.00,WUHU216HW,2013-08-10 08:21:00,
2013-08-10 02:26:00,59.6,46.5,30.12,North,0,0.0,0.0,62,0.00,,,0.00,WUHU216HW,2013-08-10 08:26:00,
2013-08-10 02:31:00,59.4,46.0,30.12,North,0,0.0,0.0,61,0.00,,,0.00,WUHU216HW,2013-08-10 08:31:00,
2013-08-10 02:36:00,59.2,45.4,30.12,North,0,0.0,0.0,60,0.00,,,0.00,WUHU216HW,2013-08-10 08:36:00,
2013-08-10 02:41:00,58.9,45.5,30.12,North,0,0.0,0.0,61,0.00,,,0.00,WUHU216HW,2013-08-10 08:41:00,
2013-08-10 02:46:00,58.5,44.7,30.13,North,0,0.0,0.0,60,0.00,,,0.00,WUHU216HW,2013-08-10 08:46:00,
2013-08-10 02:51:00,58.1,44.4,30.13,North,0,0.0,0.0,60,0.00,,,0.00,WUHU216HW,2013-08-10 08:51:00,
2013-08-10 02:56:00,57.8,44.0,30.14,North,0,0.0,0.0,60,0.00,,,0.00,WUHU216HW,2013-08-10 08:56:00,
2013-08-10 03:01:00,57.4,44.1,30.14,North,0,0.0,0.0,61,0.00,,,0.00,WUHU216HW,2013-08-10 09:01:00,
2013-08-10 03:06:00,57.1,44.6,30.13,North,0,0.0,0.0,63,0.00,,,0.00,WUHU216HW,2013-08-10 09:06:00,
2013-08-10 03:11:00,56.7,44.7,30.13,North,0,0.0,0.0,64,0.00,,,0.00,WUHU216HW,2013-08-10 09:11:00,
2013-08-10 03:16:00,56.5,44.5,30.13,North,0,0.0,0.0,64,0.00,,,0.00,WUHU216HW,2013-08-10 09:16:00,
2013-08-10 03:21:00,56.5,44.5,30.13,North,0,0.0,0.0,64,0.00,,,0.00,WUHU216HW,2013-08-10 09:21:00,
2013-08-10 03:26:00,56.5,44.8,30.12,North,0,0.0,0.0,65,0.00,,,0.00,WUHU216HW,2013-08-10 09:26:00,
2013-08-10 03:31:00,56.5,44.8,30.12,North,0,0.0,0.0,65,0.00,,,0.00,WUHU216HW,2013-08-10 09:31:00,
2013-08-10 03:36:00,56.5,44.8,30.12,North,0,0.0,0.0,65,0.00,,,0.00,WUHU216HW,2013-08-10 09:36:00,
2013-08-10 03:41:00,56.5,44.8,30.12,North,0,0.0,0.0,65,0.00,,,0.00,WUHU216HW,2013-08-10 09:41:00,
2013-08-10 03:46:00,56.7,45.5,30.12,North,0,0.0,0.0,66,0.00,,,0.00,WUHU216HW,2013-08-10 09:46:00,
2013-08-10 03:51:00,56.7,45.0,30.11,North,0,0.0,0.0,65,0.00,,,0.00,WUHU216HW,2013-08-10 09:51:00,
2013-08-10 03:56:00,56.5,44.8,30.11,North,0,0.0,0.0,65,0.00,,,0.00,WUHU216HW,2013-08-10 09:56:00,
2013-08-10 04:01:00,56.3,45.1,30.12,North,0,0.0,0.0,66,0.00,,,0.00,WUHU216HW,2013-08-10 10:01:00,
2013-08-10 04:06:00,56.3,45.5,30.12,North,0,0.0,0.0,67,0.00,,,0.00,WUHU216HW,2013-08-10 10:06:00,
2013-08-10 04:11:00,56.3,45.5,30.12,North,0,0.0,0.0,67,0.00,,,0.00,WUHU216HW,2013-08-10 10:11:00,
2013-08-10 04:16:00,56.0,45.5,30.13,North,0,0.0,0.0,68,0.00,,,0.00,WUHU216HW,2013-08-10 10:16:00,
2013-08-10 04:21:00,55.6,45.3,30.13,North,0,0.0,0.0,68,0.00,,,0.00,WUHU216HW,2013-08-10 10:21:00,
2013-08-10 04:26:00,55.3,45.3,30.13,North,0,0.0,0.0,69,0.00,,,0.00,WUHU216HW,2013-08-10 10:26:00,
2013-08-10 04:31:00,55.1,44.7,30.13,North,0,0.0,0.0,68,0.00,,,0.00,WUHU216HW,2013-08-10 10:31:00,
2013-08-10 04:36:00,54.7,44.4,30.13,North,0,0.0,0.0,68,0.00,,,0.00,WUHU216HW,2013-08-10 10:36:00,
2013-08-10 04:41:00,54.4,44.0,30.13,North,0,0.0,0.0,68,0.00,,,0.00,WUHU216HW,2013-08-10 10:41:00,
2013-08-10 04:46:00,54.2,44.3,30.12,North,0,0.0,0.0,69,0.00,,,0.00,WUHU216HW,2013-08-10 10:46:00,
2013-08-10 04:51:00,54.2,44.3,30.12,North,0,0.0,0.0,69,0.00,,,0.00,WUHU216HW,2013-08-10 10:51:00,
2013-08-10 04:56:00,54.4,44.8,30.12,North,0,0.0,0.0,70,0.00,,,0.00,WUHU216HW,2013-08-10 10:56:00,
2013-08-10 05:01:00,54.4,45.2,30.13,North,0,0.0,0.0,71,0.00,,,0.00,WUHU216HW,2013-08-10 11:01:00,
2013-08-10 05:06:00,54.2,45.0,30.13,North,0,0.0,0.0,71,0.00,,,0.00,WUHU216HW,2013-08-10 11:06:00,
2013-08-10 05:11:00,54.2,45.0,30.13,North,0,0.0,0.0,71,0.00,,,0.00,WUHU216HW,2013-08-10 11:11:00,
2013-08-10 05:16:00,54.2,45.0,30.13,North,0,0.0,0.0,71,0.00,,,0.00,WUHU216HW,2013-08-10 11:16:00,
2013-08-10 05:21:00,54.0,45.2,30.13,North,0,0.0,0.0,72,0.00,,,0.00,WUHU216HW,2013-08-10 11:21:00,
2013-08-10 05:26:00,54.0,45.2,30.13,North,0,0.0,0.0,72,0.00,,,0.00,WUHU216HW,2013-08-10 11:26:00,
2013-08-10 05:31:00,53.8,44.7,30.13,North,0,0.0,0.0,71,0.00,,,0.00,WUHU216HW,2013-08-10 11:31:00,
2013-08-10 05:36:00,53.6,44.5,30.13,North,0,0.0,0.0,71,0.00,,,0.00,WUHU216HW,2013-08-10 11:36:00,
2013-08-10 05:41:00,53.3,45.2,30.13,North,0,0.0,0.0,74,0.00,,,0.00,WUHU216HW,2013-08-10 11:41:00,
2013-08-10 05:46:00,53.1,44.3,30.13,North,0,0.0,0.0,72,0.00,,,0.00,WUHU216HW,2013-08-10 11:46:00,
2013-08-10 05:51:00,52.9,44.2,30.14,North,0,0.0,0.0,72,0.00,,,0.00,WUHU216HW,2013-08-10 11:51:00,
2013-08-10 05:56:00,52.9,44.2,30.13,North,0,0.0,0.0,72,0.00,,,0.00,WUHU216HW,2013-08-10 11:56:00,
2013-08-10 06:01:00,52.7,43.7,30.14,North,0,0.0,0.0,71,0.00,,,0.00,WUHU216HW,2013-08-10 12:01:00,
2013-08-10 06:06:00,52.6,43.8,30.14,North,0,0.0,0.0,72,0.00,,,0.00,WUHU216HW,2013-08-10 12:06:00,
2013-08-10 06:11:00,52.6,43.8,30.13,North,0,0.0,0.0,72,0.00,,,0.00,WUHU216HW,2013-08-10 12:11:00,
2013-08-10 06:16:00,52.6,43.8,30.13,North,0,0.0,0.0,72,0.00,,,0.00,WUHU216HW,2013-08-10 12:16:00,
2013-08-10 06:21:00,52.6,43.8,30.14,North,0,0.0,0.0,72,0.00,,,0.00,WUHU216HW,2013-08-10 12:21:00,
2013-08-10 06:26:00,52.4,43.7,30.14,North,0,0.0,0.0,72,0.00,,,0.00,WUHU216HW,2013-08-10 12:26:00,
2013-08-10 06:31:00,52.4,43.7,30.14,North,0,0.0,0.0,72,0.00,,,0.00,WUHU216HW,2013-08-10 12:31:00,
2013-08-10 06:36:00,52.6,44.2,30.14,North,0,0.0,0.0,73,0.00,,,0.00,WUHU216HW,2013-08-10 12:36:00,
2013-08-10 06:41:00,52.4,44.0,30.14,North,0,0.0,0.0,73,0.00,,,0.00,WUHU216HW,2013-08-10 12:41:00,
2013-08-10 06:46:00,52.4,44.0,30.14,North,0,0.0,0.0,73,0.00,,,0.00,WUHU216HW,2013-08-10 12:46:00,
2013-08-10 06:51:00,52.2,43.5,30.14,North,0,0.0,0.0,72,0.00,,,0.00,WUHU216HW,2013-08-10 12:51:00,
2013-08-10 06:56:00,52.2,43.5,30.15,North,0,0.0,0.0,72,0.00,,,0.00,WUHU216HW,2013-08-10 12:56:00,
2013-08-10 07:01:00,52.0,43.3,30.15,North,0,0.0,0.0,72,0.00,,,0.00,WUHU216HW,2013-08-10 13:01:00,
2013-08-10 07:06:00,51.8,43.2,30.15,North,0,0.0,0.0,72,0.00,,,0.00,WUHU216HW,2013-08-10 13:06:00,
2013-08-10 07:11:00,52.0,43.3,30.15,North,0,0.0,0.0,72,0.00,,,0.00,WUHU216HW,2013-08-10 13:11:00,
2013-08-10 07:16:00,52.2,43.8,30.15,North,0,0.0,0.0,73,0.00,,,0.00,WUHU216HW,2013-08-10 13:16:00,
2013-08-10 07:21:00,52.6,44.2,30.15,North,0,0.0,0.0,73,0.00,,,0.00,WUHU216HW,2013-08-10 13:21:00,
2013-08-10 07:26:00,52.7,44.4,30.15,North,0,0.0,0.0,73,0.00,,,0.00,WUHU216HW,2013-08-10 13:26:00,
2013-08-10 07:31:00,52.9,44.8,30.15,North,0,0.0,0.0,74,0.00,,,0.00,WUHU216HW,2013-08-10 13:31:00,
2013-08-10 07:36:00,53.3,45.2,30.15,North,0,0.0,0.0,74,0.00,,,0.00,WUHU216HW,2013-08-10 13:36:00,
2013-08-10 07:41:00,53.6,45.9,30.15,North,0,0.0,0.0,75,0.00,,,0.00,WUHU216HW,2013-08-10 13:41:00,
2013-08-10 07:46:00,54.2,46.5,30.15,North,0,0.0,0.0,75,0.00,,,0.00,WUHU216HW,2013-08-10 13:46:00,
2013-08-10 07:51:00,54.5,46.5,30.15,North,0,0.0,0.0,74,0.00,,,0.00,WUHU216HW,2013-08-10 13:51:00,
2013-08-10 07:56:00,55.1,46.9,30.15,North,0,0.0,0.0,74,0.00,,,0.00,WUHU216HW,2013-08-10 13:56:00,
2013-08-10 08:01:00,55.3,46.7,30.15,North,0,0.0,0.0,73,0.00,,,0.00,WUHU216HW,2013-08-10 14:01:00,
2013-08-10 08:06:00,55.6,46.7,30.16,North,0,0.0,0.0,72,0.00,,,0.00,WUHU216HW,2013-08-10 14:06:00,
2013-08-10 08:11:00,56.0,47.1,30.16,North,0,0.0,0.0,72,0.00,,,0.00,WUHU216HW,2013-08-10 14:11:00,
2013-08-10 08:16:00,56.5,47.3,30.16,North,0,0.0,0.0,71,0.00,,,0.00,WUHU216HW,2013-08-10 14:16:00,
2013-08-10 08:21:00,57.1,47.7,30.16,North,0,0.0,0.0,71,0.00,,,0.00,WUHU216HW,2013-08-10 14:21:00,
2013-08-10 08:26:00,57.4,47.7,30.16,North,0,0.0,0.0,70,0.00,,,0.00,WUHU216HW,2013-08-10 14:26:00,
2013-08-10 08:31:00,58.0,48.2,30.16,North,0,0.0,0.0,70,0.00,,,0.00,WUHU216HW,2013-08-10 14:31:00,
2013-08-10 08:36:00,58.5,48.3,30.16,North,0,0.0,0.0,69,0.00,,,0.00,WUHU216HW,2013-08-10 14:36:00,
2013-08-10 08:41:00,59.0,48.9,30.16,North,0,0.0,0.0,69,0.00,,,0.00,WUHU216HW,2013-08-10 14:41:00,
2013-08-10 08:46:00,59.8,49.6,30.16,North,0,0.0,0.0,69,0.00,,,0.00,WUHU216HW,2013-08-10 14:46:00,
2013-08-10 08:51:00,60.5,50.3,30.16,North,0,0.0,0.0,69,0.00,,,0.00,WUHU216HW,2013-08-10 14:51:00,
2013-08-10 08:56:00,61.2,50.6,30.16,North,0,0.0,0.0,68,0.00,,,0.00,WUHU216HW,2013-08-10 14:56:00,
2013-08-10 09:01:00,61.6,50.5,30.16,North,0,0.0,0.0,67,0.00,,,0.00,WUHU216HW,2013-08-10 15:01:00,
2013-08-10 09:06:00,62.3,51.2,30.16,North,0,0.0,0.0,67,0.00,,,0.00,WUHU216HW,2013-08-10 15:06:00,
2013-08-10 09:11:00,63.0,51.0,30.16,North,0,0.0,0.0,65,0.00,,,0.00,WUHU216HW,2013-08-10 15:11:00,
2013-08-10 09:16:00,63.9,51.8,30.16,North,0,0.0,0.0,65,0.00,,,0.00,WUHU216HW,2013-08-10 15:16:00,
2013-08-10 09:21:00,65.0,52.0,30.16,North,0,0.0,0.0,63,0.00,,,0.00,WUHU216HW,2013-08-10 15:21:00,
2013-08-10 09:26:00,65.7,51.5,30.16,North,0,0.0,0.0,60,0.00,,,0.00,WUHU216HW,2013-08-10 15:26:00,
2013-08-10 09:31:00,66.4,51.7,30.16,North,0,0.0,0.0,59,0.00,,,0.00,WUHU216HW,2013-08-10 15:31:00,
2013-08-10 09:36:00,67.1,51.8,30.16,North,0,0.0,0.0,58,0.00,,,0.00,WUHU216HW,2013-08-10 15:36:00,
2013-08-10 09:41:00,67.5,51.2,30.16,North,0,0.0,0.0,56,0.00,,,0.00,WUHU216HW,2013-08-10 15:41:00,
2013-08-10 09:46:00,67.9,51.0,30.15,North,0,0.0,0.0,55,0.00,,,0.00,WUHU216HW,2013-08-10 15:46:00,
2013-08-10 09:51:00,68.6,51.8,30.16,North,0,0.0,0.0,55,0.00,,,0.00,WUHU216HW,2013-08-10 15:51:00,
2013-08-10 09:56:00,68.8,51.4,30.16,North,0,0.0,0.0,54,0.00,,,0.00,WUHU216HW,2013-08-10 15:56:00,
2013-08-10 10:01:00,69.1,51.2,30.16,North,0,0.0,0.0,53,0.00,,,0.00,WUHU216HW,2013-08-10 16:01:00,
2013-08-10 10:06:00,68.9,51.1,30.16,North,0,0.0,0.0,53,0.00,,,0.00,WUHU216HW,2013-08-10 16:06:00,
2013-08-10 10:11:00,69.1,51.2,30.16,North,0,0.0,0.0,53,0.00,,,0.00,WUHU216HW,2013-08-10 16:11:00,
2013-08-10 10:16:00,69.8,51.4,30.15,North,0,0.0,0.0,52,0.00,,,0.00,WUHU216HW,2013-08-10 16:16:00,
2013-08-10 10:21:00,70.2,52.2,30.15,North,0,0.0,0.0,53,0.00,,,0.00,WUHU216HW,2013-08-10 16:21:00,
2013-08-10 10:26:00,70.6,52.0,30.15,North,0,0.0,0.0,52,0.00,,,0.00,WUHU216HW,2013-08-10 16:26:00,
2013-08-10 10:31:00,71.3,52.2,30.15,North,0,0.0,0.0,51,0.00,,,0.00,WUHU216HW,2013-08-10 16:31:00,
2013-08-10 10:36:00,72.0,51.1,30.15,North,0,0.0,0.0,48,0.00,,,0.00,WUHU216HW,2013-08-10 16:36:00,
2013-08-10 10:41:00,72.0,51.8,30.15,North,0,0.0,0.0,49,0.00,,,0.00,WUHU216HW,2013-08-10 16:41:00,
2013-08-10 10:46:00,72.7,51.2,30.15,North,0,0.0,0.0,47,0.00,,,0.00,WUHU216HW,2013-08-10 16:46:00,
2013-08-10 10:51:00,72.7,50.6,30.15,North,0,0.0,0.0,46,0.00,,,0.00,WUHU216HW,2013-08-10 16:51:00,
2013-08-10 10:56:00,72.7,51.2,30.14,North,0,0.0,0.0,47,0.00,,,0.00,WUHU216HW,2013-08-10 16:56:00,
2013-08-10 11:01:00,73.1,51.6,30.15,North,0,0.0,0.0,47,0.00,,,0.00,WUHU216HW,2013-08-10 17:01:00,
2013-08-10 11:06:00,73.4,51.3,30.14,North,0,0.0,0.0,46,0.00,,,0.00,WUHU216HW,2013-08-10 17:06:00,
2013-08-10 11:11:00,73.6,50.9,30.14,North,0,0.0,0.0,45,0.00,,,0.00,WUHU216HW,2013-08-10 17:11:00,
2013-08-10 11:16:00,73.8,51.0,30.14,North,0,0.0,0.0,45,0.00,,,0.00,WUHU216HW,2013-08-10 17:16:00,
2013-08-10 11:21:00,74.0,51.2,30.14,North,0,0.0,0.0,45,0.00,,,0.00,WUHU216HW,2013-08-10 17:21:00,
2013-08-10 11:26:00,74.2,50.8,30.14,North,0,0.0,0.0,44,0.00,,,0.00,WUHU216HW,2013-08-10 17:26:00,
2013-08-10 11:31:00,74.2,50.1,30.14,North,0,0.0,0.0,43,0.00,,,0.00,WUHU216HW,2013-08-10 17:31:00,
2013-08-10 11:36:00,74.2,50.1,30.13,North,0,0.0,0.0,43,0.00,,,0.00,WUHU216HW,2013-08-10 17:36:00,
2013-08-10 11:41:00,74.7,50.0,30.13,North,0,0.0,0.0,42,0.00,,,0.00,WUHU216HW,2013-08-10 17:41:00,
2013-08-10 11:46:00,74.9,50.2,30.13,North,0,0.0,0.0,42,0.00,,,0.00,WUHU216HW,2013-08-10 17:46:00,
2013-08-10 11:51:00,75.1,50.4,30.13,North,0,0.0,0.0,42,0.00,,,0.00,WUHU216HW,2013-08-10 17:51:00,
2013-08-10 11:56:00,75.8,49.8,30.13,North,0,0.0,0.0,40,0.00,,,0.00,WUHU216HW,2013-08-10 17:56:00,
2013-08-10 12:01:00,76.3,49.5,30.13,North,0,0.0,0.0,39,0.00,,,0.00,WUHU216HW,2013-08-10 18:01:00,
2013-08-10 12:06:00,76.3,50.3,30.13,North,0,0.0,0.0,40,0.00,,,0.00,WUHU216HW,2013-08-10 18:06:00,
2013-08-10 12:11:00,77.0,51.6,30.12,North,0,0.0,0.0,41,0.00,,,0.00,WUHU216HW,2013-08-10 18:11:00,
2013-08-10 12:16:00,77.8,50.0,30.12,North,0,0.0,0.0,38,0.00,,,0.00,WUHU216HW,2013-08-10 18:16:00,
2013-08-10 12:21:00,78.1,49.6,30.12,North,0,0.0,0.0,37,0.00,,,0.00,WUHU216HW,2013-08-10 18:21:00,
2013-08-10 12:26:00,78.3,48.3,30.12,North,0,0.0,0.0,35,0.00,,,0.00,WUHU216HW,2013-08-10 18:26:00,
2013-08-10 12:31:00,78.7,48.5,30.12,North,0,0.0,0.0,35,0.00,,,0.00,WUHU216HW,2013-08-10 18:31:00,
2013-08-10 12:36:00,79.0,48.1,30.12,North,0,0.0,0.0,34,0.00,,,0.00,WUHU216HW,2013-08-10 18:36:00,
2013-08-10 12:41:00,78.8,47.9,30.12,North,0,0.0,0.0,34,0.00,,,0.00,WUHU216HW,2013-08-10 18:41:00,
2013-08-10 12:46:00,79.0,46.5,30.11,North,0,0.0,0.0,32,0.00,,,0.00,WUHU216HW,2013-08-10 18:46:00,
2013-08-10 12:51:00,79.2,47.4,30.11,North,0,0.0,0.0,33,0.00,,,0.00,WUHU216HW,2013-08-10 18:51:00,
2013-08-10 12:56:00,79.6,47.8,30.11,North,0,0.0,0.0,33,0.00,,,0.00,WUHU216HW,2013-08-10 18:56:00,
2013-08-10 13:01:00,80.6,48.8,30.11,North,0,0.0,0.0,33,0.00,,,0.00,WUHU216HW,2013-08-10 19:01:00,
2013-08-10 13:06:00,81.4,47.0,30.11,North,0,0.0,0.0,30,0.00,,,0.00,WUHU216HW,2013-08-10 19:06:00,
2013-08-10 13:11:00,82.4,49.5,30.11,North,0,0.0,0.0,32,0.00,,,0.00,WUHU216HW,2013-08-10 19:11:00,
2013-08-10 13:16:00,83.3,48.7,30.10,North,0,0.0,0.0,30,0.00,,,0.00,WUHU216HW,2013-08-10 19:16:00,
2013-08-10 13:21:00,83.9,49.1,30.10,North,0,0.0,0.0,30,0.00,,,0.00,WUHU216HW,2013-08-10 19:21:00,
2013-08-10 13:26:00,83.7,48.0,30.10,North,0,0.0,0.0,29,0.00,,,0.00,WUHU216HW,2013-08-10 19:26:00,
2013-08-10 13:31:00,83.2,49.3,30.10,North,0,0.0,0.0,31,0.00,,,0.00,WUHU216HW,2013-08-10 19:31:00,
2013-08-10 13:36:00,83.2,48.5,30.10,North,0,0.0,0.0,30,0.00,,,0.00,WUHU216HW,2013-08-10 19:36:00,
2013-08-10 13:41:00,83.3,48.7,30.10,North,0,0.0,0.0,30,0.00,,,0.00,WUHU216HW,2013-08-10 19:41:00,
2013-08-10 13:46:00,83.0,48.3,30.10,North,0,0.0,0.0,30,0.00,,,0.00,WUHU216HW,2013-08-10 19:46:00,
2013-08-10 13:51:00,82.1,48.4,30.09,North,0,0.0,0.0,31,0.00,,,0.00,WUHU216HW,2013-08-10 19:51:00,
2013-08-10 13:56:00,82.1,48.4,30.09,North,0,0.0,0.0,31,0.00,,,0.00,WUHU216HW,2013-08-10 19:56:00,
2013-08-10 14:01:00,82.3,48.5,30.09,North,0,0.0,0.0,31,0.00,,,0.00,WUHU216HW,2013-08-10 20:01:00,
2013-08-10 14:06:00,82.6,48.9,30.08,North,0,0.0,0.0,31,0.00,,,0.00,WUHU216HW,2013-08-10 20:06:00,
2013-08-10 14:11:00,83.7,49.8,30.08,North,0,0.0,0.0,31,0.00,,,0.00,WUHU216HW,2013-08-10 20:11:00,
2013-08-10 14:16:00,85.1,50.3,30.08,North,0,0.0,0.0,30,0.00,,,0.00,WUHU216HW,2013-08-10 20:16:00,
2013-08-10 14:21:00,86.0,47.9,30.08,North,0,0.0,0.0,27,0.00,,,0.00,WUHU216HW,2013-08-10 20:21:00,
2013-08-10 14:26:00,86.0,49.0,30.07,North,0,0.0,0.0,28,0.00,,,0.00,WUHU216HW,2013-08-10 20:26:00,
2013-08-10 14:31:00,85.3,46.2,30.07,North,0,0.0,0.0,26,0.00,,,0.00,WUHU216HW,2013-08-10 20:31:00,
2013-08-10 14:36:00,84.4,44.4,30.07,North,0,0.0,0.0,25,0.00,,,0.00,WUHU216HW,2013-08-10 20:36:00,
2013-08-10 14:41:00,84.4,44.4,30.07,North,0,0.0,0.0,25,0.00,,,0.00,WUHU216HW,2013-08-10 20:41:00,
2013-08-10 14:46:00,84.8,43.6,30.07,North,0,0.0,0.0,24,0.00,,,0.00,WUHU216HW,2013-08-10 20:46:00,
2013-08-10 14:51:00,85.3,45.1,30.06,North,0,0.0,0.0,25,0.00,,,0.00,WUHU216HW,2013-08-10 20:51:00,
2013-08-10 14:56:00,86.4,46.0,30.06,North,0,0.0,0.0,25,0.00,,,0.00,WUHU216HW,2013-08-10 20:56:00,
2013-08-10 15:01:00,86.9,43.3,30.06,North,0,0.0,0.0,22,0.00,,,0.00,WUHU216HW,2013-08-10 21:01:00,
2013-08-10 15:06:00,87.3,43.6,30.06,North,0,0.0,0.0,22,0.00,,,0.00,WUHU216HW,2013-08-10 21:06:00,
2013-08-10 15:11:00,88.0,44.2,30.06,North,0,0.0,0.0,22,0.00,,,0.00,WUHU216HW,2013-08-10 21:11:00,
2013-08-10 15:16:00,88.6,44.6,30.06,North,0,0.0,0.0,22,0.00,,,0.00,WUHU216HW,2013-08-10 21:16:00,
2013-08-10 15:21:00,88.9,43.9,30.06,North,0,0.0,0.0,21,0.00,,,0.00,WUHU216HW,2013-08-10 21:21:00,
2013-08-10 15:26:00,88.6,42.5,30.06,North,0,0.0,0.0,20,0.00,,,0.00,WUHU216HW,2013-08-10 21:26:00,
2013-08-10 15:31:00,88.0,40.3,30.06,North,0,0.0,0.0,19,0.00,,,0.00,WUHU216HW,2013-08-10 21:31:00,
2013-08-10 15:36:00,88.0,43.1,30.05,North,0,0.0,0.0,21,0.00,,,0.00,WUHU216HW,2013-08-10 21:36:00,
2013-08-10 15:41:00,88.0,44.2,30.05,North,0,0.0,0.0,22,0.00,,,0.00,WUHU216HW,2013-08-10 21:41:00,
2013-08-10 15:46:00,88.6,40.8,30.05,North,0,0.0,0.0,19,0.00,,,0.00,WUHU216HW,2013-08-10 21:46:00,
2013-08-10 15:51:00,89.1,41.2,30.05,North,0,0.0,0.0,19,0.00,,,0.00,WUHU216HW,2013-08-10 21:51:00,
2013-08-10 15:56:00,88.9,43.9,30.05,North,0,0.0,0.0,21,0.00,,,0.00,WUHU216HW,2013-08-10 21:56:00,
2013-08-10 16:01:00,88.7,43.8,30.05,North,0,0.0,0.0,21,0.00,,,0.00,WUHU216HW,2013-08-10 22:01:00,
2013-08-10 16:06:00,88.9,43.9,30.05,North,0,0.0,0.0,21,0.00,,,0.00,WUHU216HW,2013-08-10 22:06:00,
2013-08-10 16:11:00,88.7,43.8,30.05,North,0,0.0,0.0,21,0.00,,,0.00,WUHU216HW,2013-08-10 22:11:00,
2013-08-10 16:16:00,88.9,44.9,30.05,North,0,0.0,0.0,22,0.00,,,0.00,WUHU216HW,2013-08-10 22:16:00,
2013-08-10 16:21:00,89.6,44.5,30.05,North,0,0.0,0.0,21,0.00,,,0.00,WUHU216HW,2013-08-10 22:21:00,
2013-08-10 16:26:00,90.4,42.2,30.05,North,0,0.0,0.0,19,0.00,,,0.00,WUHU216HW,2013-08-10 22:26:00,
2013-08-10 16:31:00,91.1,42.8,30.05,North,0,0.0,0.0,19,0.00,,,0.00,WUHU216HW,2013-08-10 22:31:00,
2013-08-10 16:36:00,90.9,42.7,30.05,North,0,0.0,0.0,19,0.00,,,0.00,WUHU216HW,2013-08-10 22:36:00,
2013-08-10 16:41:00,90.9,42.7,30.05,North,0,0.0,0.0,19,0.00,,,0.00,WUHU216HW,2013-08-10 22:41:00,
2013-08-10 16:46:00,90.5,45.2,30.05,North,0,0.0,0.0,21,0.00,,,0.00,WUHU216HW,2013-08-10 22:46:00,
2013-08-10 16:51:00,90.0,44.7,30.05,North,0,0.0,0.0,21,0.00,,,0.00,WUHU216HW,2013-08-10 22:51:00,
2013-08-10 16:56:00,89.5,44.3,30.05,North,0,0.0,0.0,21,0.00,,,0.00,WUHU216HW,2013-08-10 22:56:00,
2013-08-10 17:01:00,88.6,44.6,30.05,North,0,0.0,0.0,22,0.00,,,0.00,WUHU216HW,2013-08-10 23:01:00,
2013-08-10 17:06:00,88.0,44.2,30.05,North,0,0.0,0.0,22,0.00,,,0.00,WUHU216HW,2013-08-10 23:06:00,
2013-08-10 17:11:00,87.7,45.0,30.05,North,0,0.0,0.0,23,0.00,,,0.00,WUHU216HW,2013-08-10 23:11:00,
2013-08-10 17:16:00,87.5,43.7,30.05,North,0,0.0,0.0,22,0.00,,,0.00,WUHU216HW,2013-08-10 23:16:00,
2013-08-10 17:21:00,86.9,44.4,30.05,North,0,0.0,0.0,23,0.00,,,0.00,WUHU216HW,2013-08-10 23:21:00,
2013-08-10 17:26:00,86.8,45.3,30.06,North,0,0.0,0.0,24,0.00,,,0.00,WUHU216HW,2013-08-10 23:26:00,
2013-08-10 17:31:00,86.2,44.8,30.06,North,0,0.0,0.0,24,0.00,,,0.00,WUHU216HW,2013-08-10 23:31:00,
2013-08-10 17:36:00,85.9,43.4,30.06,North,0,0.0,0.0,23,0.00,,,0.00,WUHU216HW,2013-08-10 23:36:00,
2013-08-10 17:41:00,85.3,42.9,30.06,North,0,0.0,0.0,23,0.00,,,0.00,WUHU216HW,2013-08-10 23:41:00,
2013-08-10 17:46:00,85.0,41.6,30.06,North,0,0.0,0.0,22,0.00,,,0.00,WUHU216HW,2013-08-10 23:46:00,
2013-08-10 17:51:00,84.6,42.4,30.06,North,0,0.0,0.0,23,0.00,,,0.00,WUHU216HW,2013-08-10 23:51:00,
2013-08-10 17:56:00,84.1,42.0,30.07,North,0,0.0,0.0,23,0.00,,,0.00,WUHU216HW,2013-08-10 23:56:00,
2013-08-10 18:01:00,83.7,42.7,30.07,North,0,0.0,0.0,24,0.00,,,0.00,WUHU216HW,2013-08-11 00:01:00,
2013-08-10 18:06:00,83.0,42.0,30.08,North,0,0.0,0.0,24,0.00,,,0.00,WUHU216HW,2013-08-11 00:06:00,
2013-08-10 18:11:00,82.3,42.5,30.08,North,0,0.0,0.0,25,0.00,,,0.00,WUHU216HW,2013-08-11 00:11:00,
2013-08-10 18:16:00,81.4,42.8,30.08,North,0,0.0,0.0,26,0.00,,,0.00,WUHU216HW,2013-08-11 00:16:00,
2013-08-10 18:21:00,80.5,44.2,30.09,North,0,0.0,0.0,28,0.00,,,0.00,WUHU216HW,2013-08-11 00:21:00,
2013-08-10 18:26:00,79.6,44.5,30.10,North,0,0.0,0.0,29,0.00,,,0.00,WUHU216HW,2013-08-11 00:26:00,
2013-08-10 18:31:00,79.0,45.0,30.10,North,0,0.0,0.0,30,0.00,,,0.00,WUHU216HW,2013-08-11 00:31:00,
2013-08-10 18:36:00,78.7,43.7,30.09,North,0,0.0,0.0,29,0.00,,,0.00,WUHU216HW,2013-08-11 00:36:00,
2013-08-10 18:41:00,78.5,40.3,30.09,North,0,0.0,0.0,26,0.00,,,0.00,WUHU216HW,2013-08-11 00:41:00,
2013-08-10 18:46:00,78.7,39.4,30.08,North,0,0.0,0.0,25,0.00,,,0.00,WUHU216HW,2013-08-11 00:46:00,
2013-08-10 18:51:00,78.7,38.4,30.08,North,0,0.0,0.0,24,0.00,,,0.00,WUHU216HW,2013-08-11 00:51:00,
2013-08-10 18:56:00,78.5,38.3,30.08,North,0,0.0,0.0,24,0.00,,,0.00,WUHU216HW,2013-08-11 00:56:00,
2013-08-10 19:01:00,78.5,39.3,30.09,North,0,0.0,0.0,25,0.00,,,0.00,WUHU216HW,2013-08-11 01:01:00,
2013-08-10 19:06:00,77.8,39.8,30.08,North,0,0.0,0.0,26,0.00,,,0.00,WUHU216HW,2013-08-11 01:06:00,
2013-08-10 19:11:00,77.8,39.8,30.08,North,0,0.0,0.0,26,0.00,,,0.00,WUHU216HW,2013-08-11 01:11:00,
2013-08-10 19:16:00,77.6,39.6,30.07,North,0,0.0,0.0,26,0.00,,,0.00,WUHU216HW,2013-08-11 01:16:00,
2013-08-10 19:21:00,77.6,38.6,30.07,North,0,0.0,0.0,25,0.00,,,0.00,WUHU216HW,2013-08-11 01:21:00,
2013-08-10 19:26:00,77.8,38.7,30.07,North,0,0.0,0.0,25,0.00,,,0.00,WUHU216HW,2013-08-11 01:26:00,
2013-08-10 19:31:00,77.8,38.7,30.07,North,0,0.0,0.0,25,0.00,,,0.00,WUHU216HW,2013-08-11 01:31:00,
2013-08-10 19:36:00,77.9,37.8,30.07,North,0,0.0,0.0,24,0.00,,,0.00,WUHU216HW,2013-08-11 01:36:00,
2013-08-10 19:41:00,77.9,36.8,30.07,North,0,0.0,0.0,23,0.00,,,0.00,WUHU216HW,2013-08-11 01:41:00,
2013-08-10 19:46:00,78.1,36.9,30.07,North,0,0.0,0.0,23,0.00,,,0.00,WUHU216HW,2013-08-11 01:46:00,
2013-08-10 19:51:00,78.1,38.0,30.07,North,0,0.0,0.0,24,0.00,,,0.00,WUHU216HW,2013-08-11 01:51:00,
2013-08-10 19:56:00,77.9,37.8,30.07,North,0,0.0,0.0,24,0.00,,,0.00,WUHU216HW,2013-08-11 01:56:00,
2013-08-10 20:01:00,77.8,37.7,30.07,North,0,0.0,0.0,24,0.00,,,0.00,WUHU216HW,2013-08-11 02:01:00,
2013-08-10 20:06:00,77.6,37.5,30.07,North,0,0.0,0.0,24,0.00,,,0.00,WUHU216HW,2013-08-11 02:06:00,
2013-08-10 20:11:00,77.6,37.5,30.07,North,0,0.0,0.0,24,0.00,,,0.00,WUHU216HW,2013-08-11 02:11:00,
2013-08-10 20:16:00,77.4,37.5,30.07,North,0,0.0,0.0,24,0.00,,,0.00,WUHU216HW,2013-08-11 02:16:00,
2013-08-10 20:21:00,77.0,38.2,30.07,North,0,0.0,0.0,25,0.00,,,0.00,WUHU216HW,2013-08-11 02:21:00,
2013-08-10 20:26:00,76.5,37.7,30.07,North,0,0.0,0.0,25,0.00,,,0.00,WUHU216HW,2013-08-11 02:26:00,
2013-08-10 20:31:00,76.1,37.4,30.07,North,0,0.0,0.0,25,0.00,,,0.00,WUHU216HW,2013-08-11 02:31:00,
2013-08-10 20:36:00,75.6,36.9,30.07,North,0,0.0,0.0,25,0.00,,,0.00,WUHU216HW,2013-08-11 02:36:00,
2013-08-10 20:41:00,75.2,36.6,30.07,North,0,0.0,0.0,25,0.00,,,0.00,WUHU216HW,2013-08-11 02:41:00,
2013-08-10 20:46:00,74.9,37.4,30.07,North,0,0.0,0.0,26,0.00,,,0.00,WUHU216HW,2013-08-11 02:46:00,
2013-08-10 20:51:00,74.9,37.4,30.07,North,0,0.0,0.0,26,0.00,,,0.00,WUHU216HW,2013-08-11 02:51:00,
2013-08-10 20:56:00,74.5,37.1,30.08,North,0,0.0,0.0,26,0.00,,,0.00,WUHU216HW,2013-08-11 02:56:00,
2013-08-10 21:02:00,73.8,38.4,30.08,North,0,0.0,0.0,28,0.00,,,0.00,WUHU216HW,2013-08-11 03:02:00,
2013-08-10 21:07:00,73.1,37.8,30.09,North,0,0.0,0.0,28,0.00,,,0.00,WUHU216HW,2013-08-11 03:07:00,
2013-08-10 21:12:00,72.4,38.3,30.09,North,0,0.0,0.0,29,0.00,,,0.00,WUHU216HW,2013-08-11 03:12:00,
2013-08-10 21:17:00,71.8,38.9,30.09,North,0,0.0,0.0,30,0.00,,,0.00,WUHU216HW,2013-08-11 03:17:00,
2013-08-10 21:22:00,71.3,38.3,30.10,North,0,0.0,0.0,30,0.00,,,0.00,WUHU216HW,2013-08-11 03:22:00,
2013-08-10 21:27:00,70.9,38.8,30.10,North,0,0.0,0.0,31,0.00,,,0.00,WUHU216HW,2013-08-11 03:27:00,
2013-08-10 21:33:00,70.7,38.6,30.10,North,0,0.0,0.0,31,0.00,,,0.00,WUHU216HW,2013-08-11 03:33:00,
2013-08-10 21:37:00,70.6,38.4,30.10,North,0,0.0,0.0,31,0.00,,,0.00,WUHU216HW,2013-08-11 03:37:00,
2013-08-10 21:42:00,70.0,38.0,30.11,North,0,0.0,0.0,31,0.00,,,0.00,WUHU216HW,2013-08-11 03:42:00,
2013-08-10 21:48:00,69.8,38.5,30.10,North,0,0.0,0.0,32,0.00,,,0.00,WUHU216HW,2013-08-11 03:48:00,
2013-08-10 21:53:00,69.5,38.3,30.11,North,0,0.0,0.0,32,0.00,,,0.00,WUHU216HW,2013-08-11 03:53:00,
2013-08-10 21:58:00,69.7,38.4,30.11,North,0,0.0,0.0,32,0.00,,,0.00,WUHU216HW,2013-08-11 03:58:00,
2013-08-10 22:01:00,69.8,38.5,30.11,North,0,0.0,0.0,32,0.00,,,0.00,WUHU216HW,2013-08-11 04:01:00,
2013-08-10 22:06:00,69.7,38.4,30.11,North,0,0.0,0.0,32,0.00,,,0.00,WUHU216HW,2013-08-11 04:06:00,
2013-08-10 22:11:00,69.8,39.3,30.11,North,0,0.0,0.0,33,0.00,,,0.00,WUHU216HW,2013-08-11 04:11:00,
2013-08-10 22:16:00,70.7,39.3,30.11,North,0,0.0,0.0,32,0.00,,,0.00,WUHU216HW,2013-08-11 04:16:00,
2013-08-10 22:21:00,70.9,39.5,30.12,North,0,0.0,0.0,32,0.00,,,0.00,WUHU216HW,2013-08-11 04:21:00,
2013-08-10 22:26:00,70.6,38.4,30.12,North,0,0.0,0.0,31,0.00,,,0.00,WUHU216HW,2013-08-11 04:26:00,
2013-08-10 22:31:00,70.2,38.9,30.13,North,0,0.0,0.0,32,0.00,,,0.00,WUHU216HW,2013-08-11 04:31:00,
2013-08-10 22:36:00,69.7,38.4,30.13,North,0,0.0,0.0,32,0.00,,,0.00,WUHU216HW,2013-08-11 04:36:00,
2013-08-10 22:41:00,69.5,38.3,30.13,North,0,0.0,0.0,32,0.00,,,0.00,WUHU216HW,2013-08-11 04:41:00,
2013-08-10 22:46:00,69.1,39.4,30.13,North,0,0.0,0.0,34,0.00,,,0.00,WUHU216HW,2013-08-11 04:46:00,
2013-08-10 22:51:00,69.3,38.8,30.14,North,0,0.0,0.0,33,0.00,,,0.00,WUHU216HW,2013-08-11 04:51:00,
2013-08-10 22:56:00,69.1,38.6,30.14,North,0,0.0,0.0,33,0.00,,,0.00,WUHU216HW,2013-08-11 04:56:00,
2013-08-10 23:01:00,68.8,38.4,30.14,North,0,0.0,0.0,33,0.00,,,0.00,WUHU216HW,2013-08-11 05:01:00,
2013-08-10 23:06:00,68.6,38.9,30.14,North,0,0.0,0.0,34,0.00,,,0.00,WUHU216HW,2013-08-11 05:06:00,
2013-08-10 23:11:00,68.6,38.9,30.13,North,0,0.0,0.0,34,0.00,,,0.00,WUHU216HW,2013-08-11 05:11:00,
2013-08-10 23:16:00,68.8,39.1,30.13,North,0,0.0,0.0,34,0.00,,,0.00,WUHU216HW,2013-08-11 05:16:00,
2013-08-10 23:22:00,68.8,39.1,30.13,North,0,0.0,0.0,34,0.00,,,0.00,WUHU216HW,2013-08-11 05:22:00,
2013-08-10 23:27:00,68.9,39.3,30.13,North,0,0.0,0.0,34,0.00,,,0.00,WUHU216HW,2013-08-11 05:27:00,
2013-08-10 23:32:00,68.8,39.1,30.13,North,0,0.0,0.0,34,0.00,,,0.00,WUHU216HW,2013-08-11 05:32:00,
2013-08-10 23:37:00,68.8,39.1,30.13,North,0,0.0,0.0,34,0.00,,,0.00,WUHU216HW,2013-08-11 05:37:00,
2013-08-10 23:43:00,68.4,38.7,30.12,North,0,0.0,0.0,34,0.00,,,0.00,WUHU216HW,2013-08-11 05:43:00,
2013-08-10 23:48:00,67.9,38.3,30.12,North,0,0.0,0.0,34,0.00,,,0.00,WUHU216HW,2013-08-11 05:48:00,
2013-08-10 23:53:00,67.3,38.5,30.13,North,0,0.0,0.0,35,0.00,,,0.00,WUHU216HW,2013-08-11 05:53:00,
2013-08-10 23:58:00,67.0,38.3,30.13,North,0,0.0,0.0,35,0.00,,,0.00,WUHU216HW,2013-08-11 05:58:00,